West Valley Falls, New York
Current Conditions -  °F | °C
As of 2:54 PM on Sunday 28 Dec 2014 (Local Time) from KDDH Reporting Station
Broken Clouds Broken Clouds  
Wind Chill: 36°   Ceiling: 3300
Heat Index: 41°   Visibility: 10mi
Dew Point: 30°   Wind: 7mph
Humidity: 65%   Direction: 270°W
Pressure: 29.86"   Gusts: 18mph
Location:  42.8614°N, 73.5395°W
Report Text: KDDH 281954Z AUTO 27006G16KT 10SM FEW027 BKN033 05/M01 A2986 RMK AO2 SLP117 T00501011
Loading
Personal Weather Stations






























Interactive Weather Map New forecast layout! Learn more

10-Day Weather Forecast

Advertisements
Track Severe Weather on mobile